createdAt,value
2019-01-31T00:02:06.934Z,30.97
2019-01-31T00:04:46.985Z,30.27
2019-01-31T00:07:53.133Z,30.03
2019-01-31T00:10:42.821Z,33.10
2019-01-31T00:13:30.646Z,31.37
2019-01-31T00:16:36.891Z,30.63
2019-01-31T00:19:42.827Z,32.33
2019-01-31T00:22:48.714Z,32.00
2019-01-31T00:25:54.706Z,31.93
2019-01-31T00:28:45.157Z,33.33
2019-01-31T00:31:51.397Z,30.37
2019-01-31T00:34:44.593Z,29.47
2019-01-31T00:37:37.200Z,30.63
2019-01-31T00:40:27.015Z,31.40
2019-01-31T00:43:32.968Z,31.40
2019-01-31T00:46:38.867Z,31.80
2019-01-31T00:49:28.236Z,31.57
2019-01-31T00:52:34.093Z,28.13
2019-01-31T00:55:28.210Z,31.23
2019-01-31T00:58:34.391Z,31.50
2019-01-31T01:01:08.641Z,30.33
2019-01-31T01:03:59.809Z,29.27
2019-01-31T01:07:05.786Z,30.10
2019-01-31T01:09:54.893Z,30.07
2019-01-31T01:12:47.047Z,29.77
2019-01-31T01:15:40.435Z,30.57
2019-01-31T01:18:29.237Z,30.40
2019-01-31T01:21:18.871Z,29.63
2019-01-31T01:24:08.056Z,30.47
2019-01-31T01:27:13.958Z,26.37
2019-01-31T01:30:14.003Z,29.67
2019-01-31T01:33:03.196Z,25.97
2019-01-31T01:35:53.489Z,27.93
2019-01-31T01:38:59.355Z,27.93
2019-01-31T01:42:05.363Z,29.40
2019-01-31T01:45:11.255Z,28.83
2019-01-31T01:48:17.439Z,28.03
2019-01-31T01:51:06.941Z,30.27
2019-01-31T01:54:12.924Z,28.07
2019-01-31T01:57:18.781Z,25.70
2019-01-31T02:00:25.041Z,27.37
2019-01-31T02:03:30.897Z,25.43
2019-01-31T02:06:36.820Z,25.70
2019-01-31T02:09:42.994Z,26.73
2019-01-31T02:12:33.615Z,27.07
2019-01-31T02:15:27.717Z,27.73
2019-01-31T02:18:17.628Z,23.60
2019-01-31T02:21:23.489Z,25.83
2019-01-31T02:24:22.195Z,25.27
2019-01-31T02:27:28.063Z,26.67
2019-01-31T02:30:33.971Z,26.03
2019-01-31T02:33:24.163Z,25.20
2019-01-31T02:36:30.467Z,25.40
2019-01-31T02:39:43.170Z,24.77
2019-01-31T02:42:44.653Z,25.30
2019-01-31T02:45:50.797Z,26.30
2019-01-31T02:48:49.548Z,25.03
2019-01-31T02:51:55.487Z,24.23
2019-01-31T02:54:47.855Z,25.63
2019-01-31T03:01:49.644Z,23.27
2019-01-31T03:04:55.823Z,23.33
2019-01-31T03:08:01.744Z,24.30
2019-01-31T03:10:59.347Z,24.40
2019-01-31T03:14:10.182Z,24.33
2019-01-31T03:17:13.394Z,24.50
2019-01-31T03:20:19.716Z,24.30
2019-01-31T03:23:25.646Z,22.47
2019-01-31T03:26:31.623Z,22.83
2019-01-31T03:29:26.833Z,23.97
2019-01-31T03:32:32.760Z,23.93
2019-01-31T03:35:22.590Z,24.33
2019-01-31T03:38:28.566Z,25.57
2019-01-31T03:41:34.714Z,24.43
2019-01-31T03:44:40.698Z,25.07
2019-01-31T03:47:46.563Z,23.20
2019-01-31T03:50:38.708Z,24.30
2019-01-31T03:53:18.455Z,24.23
2019-01-31T03:56:24.429Z,23.53
2019-01-31T03:58:56.697Z,22.20
2019-01-31T04:02:02.636Z,23.00
2019-01-31T04:04:33.670Z,22.60
2019-01-31T04:07:01.062Z,24.50
2019-01-31T04:12:22.814Z,22.67
2019-01-31T04:14:49.585Z,23.77
2019-01-31T04:17:16.326Z,22.20
2019-01-31T04:19:43.461Z,23.90
2019-01-31T04:22:10.332Z,23.13
2019-01-31T04:24:37.363Z,25.13
2019-01-31T04:27:04.233Z,24.57
2019-01-31T04:29:31.172Z,23.67
2019-01-31T04:31:58.292Z,25.43
2019-01-31T04:34:25.155Z,22.83
2019-01-31T04:36:52.183Z,25.53
2019-01-31T04:39:19.022Z,23.67
2019-01-31T04:41:46.244Z,23.87
2019-01-31T04:44:13.120Z,25.43
2019-01-31T04:46:40.513Z,24.27
2019-01-31T04:49:07.915Z,22.87
2019-01-31T04:51:34.906Z,25.40
2019-01-31T04:54:01.612Z,22.13
2019-01-31T04:56:28.417Z,23.27
2019-01-31T04:58:55.149Z,24.90
2019-01-31T05:01:41.637Z,25.03
2019-01-31T05:04:08.371Z,22.53
2019-01-31T05:06:35.267Z,23.33
2019-01-31T05:11:37.189Z,22.17
2019-01-31T05:14:04.302Z,23.00
2019-01-31T05:16:51.753Z,22.97
2019-01-31T05:19:19.263Z,22.77
2019-01-31T05:21:46.120Z,24.30
2019-01-31T05:24:13.064Z,24.17
2019-01-31T05:26:39.848Z,24.50
2019-01-31T05:29:06.752Z,21.33
2019-01-31T05:31:33.646Z,21.23
2019-01-31T05:34:00.439Z,23.80
2019-01-31T05:36:27.477Z,23.30
2019-01-31T05:38:54.298Z,23.57
2019-01-31T05:41:21.293Z,23.07
2019-01-31T05:43:48.056Z,23.27
2019-01-31T05:46:14.892Z,21.37
2019-01-31T05:48:41.634Z,22.20
2019-01-31T05:51:28.117Z,22.77
2019-01-31T05:53:54.849Z,22.57
2019-01-31T05:56:21.663Z,22.53
2019-01-31T05:59:08.106Z,23.63
2019-01-31T06:01:34.899Z,23.43
2019-01-31T06:04:01.635Z,22.67
2019-01-31T06:06:28.599Z,23.33
2019-01-31T06:08:55.479Z,23.50
2019-01-31T06:11:22.215Z,23.47
2019-01-31T06:13:49.062Z,25.10
2019-01-31T06:16:16.094Z,29.07
2019-01-31T06:18:43.116Z,23.30
2019-01-31T06:21:09.947Z,22.17
2019-01-31T06:23:36.690Z,23.93
2019-01-31T06:26:03.448Z,22.00
2019-01-31T06:28:30.375Z,22.50
2019-01-31T06:30:57.117Z,23.20
2019-01-31T06:33:23.765Z,23.13
2019-01-31T06:35:50.602Z,21.13
2019-01-31T06:38:37.098Z,22.83
2019-01-31T06:41:04.016Z,23.47
2019-01-31T06:43:30.761Z,22.93
2019-01-31T06:45:57.544Z,23.17
2019-01-31T06:48:24.338Z,22.17
2019-01-31T06:50:51.075Z,22.67
2019-01-31T06:53:17.853Z,23.90
2019-01-31T06:55:45.004Z,24.13
2019-01-31T06:58:24.140Z,23.30
2019-01-31T07:00:51.066Z,22.77
2019-01-31T07:03:17.903Z,23.37
2019-01-31T07:05:44.662Z,25.87
2019-01-31T07:08:11.549Z,23.20
2019-01-31T07:10:38.399Z,24.73
2019-01-31T07:13:05.150Z,24.03
2019-01-31T07:15:32.087Z,24.80
2019-01-31T07:17:58.848Z,26.60
2019-01-31T07:20:25.698Z,26.83
2019-01-31T07:22:52.523Z,25.00
2019-01-31T07:25:21.447Z,26.60
2019-01-31T07:27:48.290Z,24.77
2019-01-31T07:30:15.452Z,26.47
2019-01-31T07:32:42.448Z,25.63
2019-01-31T07:35:10.948Z,23.17
2019-01-31T07:37:38.148Z,24.30
2019-01-31T07:40:46.558Z,24.23
2019-01-31T07:43:14.033Z,24.77
2019-01-31T07:45:40.788Z,25.20
2019-01-31T07:48:07.739Z,24.50
2019-01-31T07:50:34.610Z,25.10
2019-01-31T07:53:01.785Z,23.97
2019-01-31T07:55:28.439Z,24.23
2019-01-31T07:57:55.308Z,23.53
2019-01-31T08:00:22.370Z,22.37
2019-01-31T08:03:01.906Z,25.30
2019-01-31T08:05:29.130Z,24.40
2019-01-31T08:08:15.732Z,24.07
2019-01-31T08:10:42.525Z,24.77
2019-01-31T08:13:29.008Z,24.33
2019-01-31T08:15:55.842Z,26.83
2019-01-31T08:18:22.876Z,25.93
2019-01-31T08:20:49.867Z,27.00
2019-01-31T08:23:16.611Z,24.13
2019-01-31T08:25:43.540Z,23.63
2019-01-31T08:28:10.856Z,23.70
2019-01-31T08:30:39.675Z,24.80
2019-01-31T08:33:06.820Z,24.87
2019-01-31T08:35:34.223Z,25.33
2019-01-31T08:38:00.869Z,24.27
2019-01-31T08:40:47.357Z,21.53
2019-01-31T08:43:14.065Z,24.10
2019-01-31T08:46:00.569Z,23.87
2019-01-31T08:48:27.415Z,24.17
2019-01-31T08:50:54.448Z,25.23
2019-01-31T08:53:21.382Z,24.73
2019-01-31T08:55:48.340Z,22.17
2019-01-31T08:58:15.996Z,23.33
2019-01-31T09:00:44.398Z,23.83
2019-01-31T09:03:12.121Z,22.80
2019-01-31T09:05:52.235Z,23.20
2019-01-31T09:08:19.069Z,21.20
2019-01-31T09:10:47.644Z,23.00
2019-01-31T09:13:15.193Z,22.77
2019-01-31T09:15:43.484Z,21.50
2019-01-31T09:18:10.521Z,22.30
2019-01-31T09:21:16.844Z,20.93
2019-01-31T09:24:23.145Z,20.57
2019-01-31T09:27:29.294Z,21.43
2019-01-31T09:30:23.379Z,21.97
2019-01-31T09:33:29.376Z,20.27
2019-01-31T09:36:35.523Z,20.87
2019-01-31T09:39:41.469Z,21.17
2019-01-31T09:42:12.598Z,19.87
2019-01-31T09:45:18.547Z,19.43
2019-01-31T09:48:24.392Z,22.23
2019-01-31T09:51:30.395Z,20.70
2019-01-31T09:54:10.445Z,17.97
2019-01-31T09:57:01.591Z,18.77
2019-01-31T10:00:07.485Z,18.90
2019-01-31T10:03:13.496Z,18.13
2019-01-31T10:06:19.362Z,17.80
2019-01-31T10:09:25.407Z,17.13
2019-01-31T10:12:37.883Z,17.30
2019-01-31T10:15:39.217Z,17.60
2019-01-31T10:18:32.926Z,15.40
2019-01-31T10:21:26.487Z,17.80
2019-01-31T10:24:32.380Z,17.33
2019-01-31T10:27:38.326Z,14.67
2019-01-31T10:30:44.190Z,16.43
2019-01-31T10:33:34.997Z,13.50
2019-01-31T10:36:24.186Z,15.13
2019-01-31T10:39:30.172Z,14.80
2019-01-31T10:42:20.949Z,15.80
2019-01-31T10:45:26.934Z,15.73
2019-01-31T10:48:32.795Z,15.47
2019-01-31T10:51:38.724Z,14.70
2019-01-31T10:54:44.583Z,14.30
2019-01-31T10:57:41.062Z,15.30
2019-01-31T11:00:47.207Z,13.60
2019-01-31T11:03:41.402Z,13.40
2019-01-31T11:06:47.414Z,13.20
2019-01-31T11:09:53.741Z,8.50
2019-01-31T11:13:00.984Z,7.03
2019-01-31T11:16:06.946Z,7.73
2019-01-31T11:19:05.337Z,8.10
2019-01-31T11:21:59.608Z,9.07
2019-01-31T11:25:05.789Z,8.97
2019-01-31T11:28:11.760Z,8.57
2019-01-31T11:31:17.769Z,8.27
2019-01-31T11:34:32.610Z,7.97
2019-01-31T11:37:31.509Z,8.47
2019-01-31T11:40:37.445Z,8.07
2019-01-31T11:43:43.366Z,8.13
2019-01-31T11:52:51.751Z,8.60
2019-01-31T11:55:57.617Z,8.47
2019-01-31T11:58:48.354Z,8.60
2019-01-31T12:01:15.077Z,9.33
2019-01-31T12:03:42.235Z,9.40
2019-01-31T12:06:09.044Z,9.40
2019-01-31T12:08:36.027Z,9.50
2019-01-31T12:11:02.917Z,9.23
2019-01-31T12:13:29.767Z,9.33
2019-01-31T12:15:56.511Z,8.47
2019-01-31T12:18:23.251Z,8.33
2019-01-31T12:20:50.053Z,8.30
2019-01-31T12:23:16.843Z,7.10
2019-01-31T12:25:43.588Z,7.70
2019-01-31T12:28:10.523Z,8.63
2019-01-31T12:30:37.259Z,9.13
2019-01-31T12:33:04.086Z,9.33
2019-01-31T12:35:30.948Z,9.80
2019-01-31T12:37:57.693Z,9.07
2019-01-31T12:40:24.529Z,9.50
2019-01-31T12:42:51.452Z,10.10
2019-01-31T12:45:18.888Z,10.50
2019-01-31T12:47:45.617Z,10.97
2019-01-31T12:50:15.851Z,12.43
2019-01-31T12:52:43.002Z,11.30
2019-01-31T12:55:09.845Z,12.57
2019-01-31T12:57:37.041Z,10.80
2019-01-31T13:00:45.806Z,10.80
2019-01-31T13:03:13.918Z,12.37
2019-01-31T13:05:41.033Z,12.30
2019-01-31T13:08:07.773Z,12.30
2019-01-31T13:10:35.016Z,12.43
2019-01-31T13:13:14.882Z,12.40
2019-01-31T13:15:41.792Z,12.87
2019-01-31T13:18:08.722Z,12.47
2019-01-31T13:20:35.460Z,12.30
2019-01-31T13:23:02.345Z,12.57
2019-01-31T13:25:29.293Z,12.43
2019-01-31T13:27:57.565Z,11.53
2019-01-31T13:30:24.764Z,11.53
2019-01-31T13:32:52.740Z,11.40
2019-01-31T13:35:19.477Z,11.33
2019-01-31T13:37:46.376Z,12.90
2019-01-31T13:40:15.512Z,11.73
2019-01-31T13:42:42.517Z,11.60
2019-01-31T13:45:10.423Z,12.10
2019-01-31T13:47:37.207Z,11.03
2019-01-31T13:50:05.305Z,11.20
2019-01-31T13:52:32.385Z,11.23
2019-01-31T13:54:59.448Z,12.27
2019-01-31T13:57:26.288Z,12.50
2019-01-31T13:59:54.241Z,10.63
2019-01-31T14:02:21.068Z,11.73
2019-01-31T14:04:49.445Z,10.77
2019-01-31T14:07:16.285Z,11.17
2019-01-31T14:09:43.180Z,12.87
2019-01-31T14:12:09.921Z,11.17
2019-01-31T14:14:36.781Z,10.07
2019-01-31T14:17:03.613Z,11.43
2019-01-31T14:19:30.471Z,11.10
2019-01-31T14:21:57.476Z,11.03
2019-01-31T14:24:24.703Z,11.40
2019-01-31T14:26:51.899Z,11.07
2019-01-31T14:29:18.950Z,10.73
2019-01-31T14:31:45.680Z,9.63
2019-01-31T14:34:12.417Z,10.10
2019-01-31T14:39:33.547Z,10.87
2019-01-31T14:42:00.595Z,10.63
2019-01-31T14:44:27.322Z,10.60
2019-01-31T14:46:54.245Z,10.83
2019-01-31T14:49:20.972Z,12.43
2019-01-31T14:51:47.741Z,11.43
2019-01-31T14:54:14.835Z,10.57
2019-01-31T14:56:41.661Z,10.97
2019-01-31T14:59:11.286Z,10.40
2019-01-31T15:01:38.159Z,9.43
2019-01-31T15:04:06.002Z,9.43
2019-01-31T15:06:54.837Z,8.93
2019-01-31T15:09:21.846Z,8.10
2019-01-31T15:11:48.772Z,9.10
2019-01-31T15:14:15.954Z,9.40
2019-01-31T15:23:08.079Z,9.17
2019-01-31T15:25:34.819Z,8.83
2019-01-31T15:28:02.196Z,9.17
2019-01-31T15:30:31.415Z,9.13
2019-01-31T15:32:58.848Z,9.73
2019-01-31T15:35:26.743Z,9.87
2019-01-31T15:37:55.260Z,9.20
2019-01-31T15:41:04.792Z,9.87
2019-01-31T15:43:31.955Z,10.60
2019-01-31T15:45:59.210Z,9.80
2019-01-31T15:48:25.941Z,10.00
2019-01-31T15:50:52.864Z,9.43
2019-01-31T15:53:22.103Z,10.07
2019-01-31T15:58:45.796Z,9.23
2019-01-31T16:01:12.995Z,10.63
2019-01-31T16:03:40.099Z,10.00
2019-01-31T16:06:07.285Z,11.67
2019-01-31T16:08:34.147Z,11.17
2019-01-31T16:11:00.882Z,11.23
2019-01-31T16:13:47.352Z,10.90
2019-01-31T16:16:14.073Z,11.00
2019-01-31T16:18:43.825Z,10.43
2019-01-31T16:21:11.346Z,10.33
2019-01-31T16:23:38.083Z,11.50
2019-01-31T16:26:04.822Z,12.50
2019-01-31T16:28:31.658Z,12.13
2019-01-31T16:30:58.501Z,11.40
2019-01-31T16:33:25.374Z,11.17
2019-01-31T16:35:53.846Z,11.50
2019-01-31T16:38:23.995Z,10.57
2019-01-31T16:40:50.378Z,11.57
2019-01-31T16:43:17.375Z,12.13
2019-01-31T16:46:03.751Z,11.53
2019-01-31T16:48:33.048Z,11.47
2019-01-31T17:02:52.132Z,15.10
2019-01-31T17:05:21.005Z,14.63
2019-01-31T17:07:47.876Z,14.57
2019-01-31T17:10:15.237Z,14.53
2019-01-31T17:12:42.340Z,13.43
2019-01-31T17:15:17.564Z,12.87
2019-01-31T17:17:38.390Z,14.73
2019-01-31T17:20:08.828Z,15.03
2019-01-31T17:22:36.017Z,15.20
2019-01-31T17:28:16.823Z,15.63
2019-01-31T17:30:43.733Z,16.47
2019-01-31T17:33:10.616Z,17.90
2019-01-31T17:35:37.610Z,19.57
2019-01-31T17:38:04.606Z,16.93
2019-01-31T17:40:33.813Z,17.10
2019-01-31T17:43:01.000Z,16.27
2019-01-31T17:45:30.573Z,15.87
2019-01-31T17:47:56.801Z,14.43
2019-01-31T17:50:24.496Z,16.40
2019-01-31T17:52:51.930Z,16.33
2019-01-31T17:55:19.751Z,17.10
2019-01-31T17:57:47.278Z,17.73
2019-01-31T18:00:53.721Z,18.77
2019-01-31T18:03:21.309Z,19.23
2019-01-31T18:05:48.710Z,19.63
2019-01-31T18:08:36.211Z,19.70
2019-01-31T18:11:03.240Z,19.80
2019-01-31T18:13:30.141Z,19.07
2019-01-31T18:15:57.189Z,25.57
2019-01-31T18:18:24.059Z,23.37
2019-01-31T18:21:03.583Z,23.57
2019-01-31T18:23:43.919Z,22.70
2019-01-31T18:26:11.382Z,23.23
2019-01-31T18:28:38.297Z,23.23
2019-01-31T18:31:05.321Z,22.23
2019-01-31T18:33:32.372Z,20.67
2019-01-31T18:35:59.266Z,21.77
2019-01-31T18:38:26.312Z,21.57
2019-01-31T18:40:53.607Z,21.13
2019-01-31T18:43:21.413Z,22.40
2019-01-31T18:45:53.357Z,22.30
2019-01-31T18:48:37.365Z,21.07
2019-01-31T18:51:04.397Z,21.33
2019-01-31T18:53:31.209Z,21.73
2019-01-31T18:56:17.770Z,20.40
2019-01-31T18:59:04.212Z,22.23
2019-01-31T19:01:31.255Z,21.70
2019-01-31T19:03:58.170Z,22.07
2019-01-31T19:06:25.957Z,23.27
2019-01-31T19:08:53.120Z,22.63
2019-01-31T19:11:19.907Z,25.67
2019-01-31T19:13:46.813Z,27.43
2019-01-31T19:16:13.669Z,26.53
2019-01-31T19:18:40.713Z,25.80
2019-01-31T19:21:07.750Z,25.93
2019-01-31T19:23:34.849Z,28.03
2019-01-31T19:26:01.845Z,28.20
2019-01-31T19:28:48.526Z,28.57
2019-01-31T19:31:15.425Z,28.93
2019-01-31T19:33:42.460Z,27.80
2019-01-31T19:36:09.798Z,27.87
2019-01-31T19:38:36.703Z,27.40
2019-01-31T19:41:03.823Z,26.37
2019-01-31T19:46:15.775Z,27.93
2019-01-31T19:48:34.285Z,30.57
2019-01-31T19:51:01.557Z,31.83
2019-01-31T19:53:30.960Z,31.47
2019-01-31T19:55:57.755Z,32.67
2019-01-31T19:58:27.014Z,32.93
2019-01-31T20:00:54.430Z,32.67
2019-01-31T20:03:21.940Z,33.47
2019-01-31T20:05:48.990Z,34.47
2019-01-31T20:08:15.737Z,35.10
2019-01-31T20:10:42.952Z,35.77
2019-01-31T20:13:09.710Z,33.90
2019-01-31T20:15:38.144Z,35.47
2019-01-31T20:18:05.306Z,37.17
2019-01-31T20:20:32.201Z,36.57
2019-01-31T20:23:18.660Z,38.87
2019-01-31T20:25:45.591Z,37.60
2019-01-31T20:28:25.052Z,39.50
2019-01-31T20:30:52.103Z,37.97
2019-01-31T20:33:19.000Z,38.27
2019-01-31T20:35:45.890Z,37.80
2019-01-31T20:38:12.681Z,33.93
2019-01-31T20:40:41.243Z,41.80
2019-01-31T20:43:08.367Z,38.93
2019-01-31T20:45:35.498Z,40.00
2019-01-31T20:48:02.426Z,40.47
2019-01-31T20:50:31.320Z,42.33
2019-01-31T20:52:58.200Z,37.73
2019-01-31T20:55:25.236Z,41.03
2019-01-31T20:57:52.395Z,41.77
2019-01-31T21:00:43.139Z,40.83
2019-01-31T21:03:10.684Z,41.40
2019-01-31T21:05:37.641Z,39.00
2019-01-31T21:08:46.069Z,39.47
2019-01-31T21:11:12.908Z,38.63
2019-01-31T21:13:40.577Z,37.10
2019-01-31T21:16:07.623Z,40.43
2019-01-31T21:18:34.609Z,39.60
2019-01-31T21:21:01.983Z,40.73
2019-01-31T21:23:29.187Z,40.63
2019-01-31T21:25:56.074Z,37.77
2019-01-31T21:28:22.823Z,41.50
2019-01-31T21:30:49.738Z,39.80
2019-01-31T21:33:17.153Z,41.43
2019-01-31T21:35:44.413Z,40.27
2019-01-31T21:38:11.849Z,40.63
2019-01-31T21:40:39.029Z,39.30
2019-01-31T21:43:25.362Z,41.17
2019-01-31T21:45:52.110Z,41.00
2019-01-31T21:48:18.865Z,41.97
2019-01-31T21:50:45.695Z,40.60
2019-01-31T21:53:13.520Z,40.30
2019-01-31T21:55:41.882Z,42.20
2019-01-31T21:58:09.194Z,42.90
2019-01-31T22:00:55.457Z,43.87
2019-01-31T22:03:22.462Z,43.80
2019-01-31T22:05:49.592Z,46.43
2019-01-31T22:08:16.878Z,43.17
2019-01-31T22:10:43.859Z,45.57
2019-01-31T22:13:10.511Z,42.53
2019-01-31T22:15:37.382Z,42.43
2019-01-31T22:18:05.328Z,41.63
2019-01-31T22:20:32.170Z,44.13
2019-01-31T22:22:58.941Z,43.27
2019-01-31T22:25:26.136Z,44.43
2019-01-31T22:28:12.840Z,44.37
2019-01-31T22:30:39.817Z,45.30
2019-01-31T22:33:07.766Z,42.50
2019-01-31T22:35:34.612Z,43.50
2019-01-31T22:38:01.518Z,45.80
2019-01-31T22:40:28.271Z,44.87
2019-01-31T22:42:55.014Z,46.10
2019-01-31T22:45:41.532Z,45.67
2019-01-31T22:48:08.676Z,45.87
2019-01-31T22:50:35.658Z,47.70
2019-01-31T22:53:22.500Z,46.77
2019-01-31T22:55:49.361Z,47.27
2019-01-31T22:58:16.219Z,43.73
2019-01-31T23:01:42.111Z,46.83
2019-01-31T23:04:08.856Z,45.03
2019-01-31T23:06:35.608Z,43.70
2019-01-31T23:11:57.548Z,46.53
2019-01-31T23:14:24.562Z,45.87
2019-01-31T23:16:51.498Z,46.77
2019-01-31T23:19:18.482Z,44.43
2019-01-31T23:21:45.320Z,45.87
2019-01-31T23:24:12.179Z,44.83
2019-01-31T23:26:39.072Z,45.83
2019-01-31T23:29:05.942Z,46.20
2019-01-31T23:34:29.650Z,46.23
2019-01-31T23:36:56.303Z,46.60
2019-01-31T23:39:23.045Z,46.93
2019-01-31T23:41:50.191Z,44.83
2019-01-31T23:44:17.276Z,46.43
2019-01-31T23:46:44.023Z,47.23
2019-01-31T23:49:11.202Z,47.90
2019-01-31T23:51:37.955Z,47.30
2019-01-31T23:56:59.435Z,45.87
2019-01-31T23:59:26.392Z,44.80
